createdAt,value
2022-08-03T00:08:21.871Z,21.83
2022-08-03T00:13:23.941Z,21.83
2022-08-03T00:18:34.069Z,21.79
2022-08-03T00:28:52.200Z,21.74
2022-08-03T00:33:59.567Z,21.65
2022-08-03T00:39:16.395Z,21.58
2022-08-03T00:44:18.009Z,21.55
2022-08-03T00:49:23.100Z,21.53
2022-08-03T00:54:28.438Z,21.40
2022-08-03T00:59:33.095Z,21.34
2022-08-03T01:04:47.696Z,21.32
2022-08-03T01:10:01.465Z,21.31
2022-08-03T01:15:55.357Z,21.16
2022-08-03T01:21:01.134Z,21.24
2022-08-03T01:26:33.747Z,21.23
2022-08-03T01:32:52.391Z,21.24
2022-08-03T01:38:03.157Z,21.20
2022-08-03T01:43:08.946Z,21.14
2022-08-03T01:48:14.285Z,21.13
2022-08-03T01:53:18.534Z,21.08
2022-08-03T01:58:21.888Z,20.99
2022-08-03T02:03:27.182Z,21.02
2022-08-03T02:08:38.120Z,20.97
2022-08-03T02:13:43.494Z,20.95
2022-08-03T02:18:49.039Z,20.91
2022-08-03T02:30:03.134Z,20.80
2022-08-03T02:35:07.291Z,20.79
2022-08-03T02:40:14.265Z,20.73
2022-08-03T02:46:09.868Z,20.70
2022-08-03T02:51:13.295Z,20.63
2022-08-03T02:56:38.848Z,20.60
2022-08-03T03:01:47.902Z,20.53
2022-08-03T03:07:51.658Z,20.49
2022-08-03T03:12:59.425Z,20.49
2022-08-03T03:18:11.404Z,20.46
2022-08-03T03:28:29.912Z,20.31
2022-08-03T03:33:36.630Z,20.29
2022-08-03T03:38:39.745Z,20.25
2022-08-03T03:43:42.761Z,20.22
2022-08-03T03:48:55.427Z,20.19
2022-08-03T03:54:04.211Z,20.13
2022-08-03T03:59:08.733Z,20.11
2022-08-03T04:04:19.023Z,20.15
2022-08-03T04:09:33.390Z,20.16
2022-08-03T04:25:37.848Z,20.17
2022-08-03T04:30:48.250Z,20.19
2022-08-03T04:47:44.488Z,20.28
2022-08-03T04:52:48.607Z,20.31
2022-08-03T04:57:50.167Z,20.30
2022-08-03T06:01:23.128Z,20.95
2022-08-03T07:55:07.648Z,28.22
2022-08-03T08:00:15.793Z,28.68
2022-08-03T08:05:17.273Z,29.46
2022-08-03T08:10:19.127Z,30.23
2022-08-03T08:15:21.168Z,30.74
2022-08-03T08:20:31.361Z,31.54
2022-08-03T08:25:33.649Z,31.63
2022-08-03T08:30:41.151Z,32.52
2022-08-03T08:35:45.758Z,32.83
2022-08-03T08:40:50.269Z,33.97
2022-08-03T08:45:58.660Z,34.24
2022-08-03T08:51:10.294Z,34.77
2022-08-03T08:56:17.011Z,35.79
2022-08-03T09:01:20.319Z,35.45
2022-08-03T09:07:04.382Z,36.84
2022-08-03T09:12:35.305Z,37.73
2022-08-03T09:17:41.076Z,39.28
2022-08-03T09:23:19.070Z,38.78
2022-08-03T09:28:59.942Z,40.70
2022-08-03T09:39:42.423Z,40.32
2022-08-03T09:44:49.017Z,42.04
2022-08-03T09:56:34.962Z,42.38
2022-08-03T10:01:05.851Z,43.06
2022-08-03T10:06:20.317Z,42.25
2022-08-03T10:11:32.019Z,42.67
2022-08-03T10:16:38.551Z,43.44
2022-08-03T10:21:43.923Z,43.73
2022-08-03T10:26:59.882Z,44.23
2022-08-03T10:32:37.740Z,43.91
2022-08-03T10:37:42.703Z,45.53
2022-08-03T10:43:49.333Z,45.70
2022-08-03T10:48:55.281Z,45.76
2022-08-03T10:54:12.874Z,46.72
2022-08-03T10:59:27.928Z,45.89
2022-08-03T11:04:30.635Z,45.85
2022-08-03T11:10:12.464Z,45.69
2022-08-03T11:32:52.678Z,44.00
2022-08-03T11:44:02.662Z,43.75
2022-08-03T11:50:03.462Z,42.49
2022-08-03T12:01:18.870Z,44.60
2022-08-03T12:11:51.072Z,43.06
2022-08-03T12:23:11.581Z,47.20
2022-08-03T12:28:37.413Z,47.16
2022-08-03T12:34:09.785Z,46.66
2022-08-03T12:39:31.639Z,46.33
2022-08-03T12:44:47.190Z,45.61
2022-08-03T12:57:04.210Z,47.80
2022-08-03T13:02:02.286Z,49.76
2022-08-03T13:08:04.532Z,49.35
2022-08-03T13:13:06.233Z,47.90
2022-08-03T13:18:08.834Z,47.72
2022-08-03T13:23:13.901Z,47.27
2022-08-03T13:28:28.872Z,46.57
2022-08-03T13:33:30.830Z,46.56
2022-08-03T13:38:32.892Z,45.66
2022-08-03T13:43:35.952Z,44.71
2022-08-03T13:48:38.006Z,43.21
2022-08-03T13:53:39.655Z,43.05
2022-08-03T13:58:43.315Z,41.66
2022-08-03T14:03:45.099Z,40.91
2022-08-03T14:08:49.069Z,41.18
2022-08-03T14:13:50.639Z,41.05
2022-08-03T14:18:52.366Z,41.31
2022-08-03T14:23:54.013Z,40.47
2022-08-03T14:28:56.234Z,39.51
2022-08-03T14:33:57.903Z,39.73
2022-08-03T14:39:01.557Z,39.58
2022-08-03T14:44:03.783Z,39.16
2022-08-03T14:50:36.978Z,38.57
2022-08-03T14:54:27.588Z,38.55
2022-08-03T14:59:29.206Z,38.64
2022-08-03T15:04:51.733Z,38.54
2022-08-03T15:10:02.449Z,38.47
2022-08-03T15:15:28.202Z,38.39
2022-08-03T15:44:20.185Z,37.21
2022-08-03T15:50:11.180Z,37.04
2022-08-03T16:01:23.124Z,36.46
2022-08-03T16:06:29.876Z,36.32
2022-08-03T16:11:40.330Z,36.54
2022-08-03T16:16:43.625Z,36.64
2022-08-03T16:21:54.152Z,36.83
2022-08-03T16:27:04.108Z,36.77
2022-08-03T16:38:09.214Z,36.88
2022-08-03T16:43:18.237Z,36.53
2022-08-03T16:48:20.779Z,36.76
2022-08-03T16:53:33.699Z,36.62
2022-08-03T16:58:44.921Z,36.39
2022-08-03T17:04:01.842Z,36.32
2022-08-03T17:09:12.242Z,36.22
2022-08-03T17:14:15.767Z,35.94
2022-08-03T17:19:18.261Z,36.06
2022-08-03T17:24:40.778Z,35.84
2022-08-03T17:29:46.466Z,35.66
2022-08-03T17:34:49.077Z,35.50
2022-08-03T17:39:59.623Z,35.18
2022-08-03T17:45:03.519Z,34.57
2022-08-03T17:50:24.560Z,34.37
2022-08-03T17:55:56.225Z,34.19
2022-08-03T18:00:52.212Z,33.98
2022-08-03T18:06:11.437Z,33.96
2022-08-03T18:11:17.446Z,33.66
2022-08-03T18:16:27.773Z,33.45
2022-08-03T18:22:03.087Z,33.20
2022-08-03T18:26:51.516Z,33.01
2022-08-03T18:32:02.933Z,32.93
2022-08-03T18:37:07.282Z,32.70
2022-08-03T18:42:09.448Z,32.49
2022-08-03T18:47:52.351Z,32.30
2022-08-03T18:53:00.088Z,32.14
2022-08-03T18:58:04.279Z,32.00
2022-08-03T19:03:08.716Z,31.81
2022-08-03T19:08:36.927Z,31.63
2022-08-03T19:13:50.179Z,31.37
